Spriggs Payne Airport

Jump to: basic info | weather | frequencies | runways | comments

Related pages: nearby airports | nearby navaids | notams | map

Basic information (top)

Codes: MLW GLMR
Location: lon 6.289060, lat -10.758700, elev 25 ft / 8 m msl
Status: medium_airport
Scheduled airline service: yes
Links: Wikipedia Mobile

Weather (top)

Current conditions for Roberts International Airport 24nm (44km) E (rec'd 2014/10/22 15:00Z):

GLRB 221500Z 22011KT 9999 BKN018 30/25 Q1011 NOSIG

Airport forecast for Roberts International Airport 24nm (44km) E (rec'd 2014/10/22 12:54Z):

TAF TAF GLRB 221000Z 2212/2318 20010KT 9999 BKN018 FM 221500 18008KT 9000 TSRA/TS SCT005 BKN015 FEW025CB 
      BECMG 2221/2223 09005KT 8000 
      TEMPO 2302/2307 20010KT 9999 BKN014

Frequencies (top)

Verify before use: may be inaccurate or out of date.

APP: 124.5 MHz (ROBERTS APP)
TWR: 118.7 MHz (SPRIGGS TWR)

Runways (top)

05/23: 6,000 x 100 ft (1,829 x 30 m) — paved — lighted — threshold 05 displaced 200 ft (61 m) — threshold 23 displaced 200 ft (61 m)

Latest comments (top)

No comments yet for Spriggs Payne Airport

More... (top)

See also NOTAMs and nearby airports and navaids, or visit the Spriggs Payne Airport page at the main OurAirports website..